Time;durP1;ratioP1;P1;durP2;ratioP2;P2;SDS_P1;SDS_P2;PMS_P1;PMS_P2;Temp;Humidity;BMP_temperature;BMP_pressure;BME280_temperature;BME280_humidity;BME280_pressure;Samples;Min_cycle;Max_cycle;Signal;HPM_P1;HPM_P2
2022/02/27 00:01:07;;;;;;;5.93;3.80;;;5.40;99.90;;;;;;5019745;28;20941;-39
2022/02/27 00:03:32;;;;;;;11.10;4.60;;;5.80;99.90;;;;;;5026087;28;20439;-40
2022/02/27 00:05:58;;;;;;;8.60;4.23;;;5.60;99.90;;;;;;5029674;28;20198;-39
2022/02/27 00:08:24;;;;;;;7.40;4.40;;;5.50;99.90;;;;;;5029368;28;20201;-39
2022/02/27 00:10:49;;;;;;;8.93;4.57;;;5.30;99.90;;;;;;5030315;28;20195;-38
2022/02/27 00:13:15;;;;;;;8.27;4.40;;;4.90;99.90;;;;;;5030555;28;20208;-38
2022/02/27 00:15:41;;;;;;;6.50;5.00;;;5.30;99.90;;;;;;5020806;28;20217;-38
2022/02/27 00:18:06;;;;;;;7.57;5.47;;;5.20;99.90;;;;;;5030693;28;20266;-38
2022/02/27 00:20:32;;;;;;;8.33;4.87;;;5.30;99.90;;;;;;5029662;28;20527;-38
2022/02/27 00:22:58;;;;;;;10.10;6.00;;;5.10;99.90;;;;;;5046647;28;20221;-38
2022/02/27 00:25:24;;;;;;;8.90;4.60;;;5.00;99.90;;;;;;5050381;28;20213;-38
2022/02/27 00:27:50;;;;;;;10.23;4.90;;;5.00;99.90;;;;;;5049947;28;20485;-38
2022/02/27 00:30:16;;;;;;;9.00;5.27;;;4.90;99.90;;;;;;5031495;28;20192;-38
2022/02/27 00:32:41;;;;;;;9.03;5.50;;;4.80;99.90;;;;;;5030097;28;20643;-39
2022/02/27 00:35:07;;;;;;;6.03;5.20;;;4.80;99.90;;;;;;5030237;28;20190;-38
2022/02/27 00:37:34;;;;;;;10.10;4.80;;;4.50;99.90;;;;;;5029942;28;20429;-39
2022/02/27 00:40:01;;;;;;;9.37;4.90;;;4.60;99.90;;;;;;5029502;28;20436;-39
2022/02/27 00:42:26;;;;;;;8.10;5.20;;;4.50;99.90;;;;;;5029860;28;20508;-38
2022/02/27 00:44:52;;;;;;;9.87;4.97;;;4.60;99.90;;;;;;5023917;28;20561;-39
2022/02/27 00:47:18;;;;;;;12.30;5.00;;;4.60;99.90;;;;;;5024758;28;20178;-38
2022/02/27 00:49:43;;;;;;;13.83;6.10;;;4.70;99.90;;;;;;5029360;28;20195;-38
2022/02/27 00:52:09;;;;;;;14.53;7.10;;;4.70;99.90;;;;;;5028841;28;20191;-38
2022/02/27 00:54:35;;;;;;;12.03;6.47;;;4.60;99.90;;;;;;5028595;28;20174;-38
2022/02/27 00:57:00;;;;;;;12.33;6.50;;;4.70;99.90;;;;;;5029670;28;20202;-39
2022/02/27 00:59:26;;;;;;;11.50;7.13;;;4.30;99.90;;;;;;5028593;28;20556;-38
2022/02/27 01:01:52;;;;;;;13.33;7.40;;;4.30;99.90;;;;;;5017576;28;20675;-39
2022/02/27 01:04:17;;;;;;;12.37;7.20;;;4.10;99.90;;;;;;5029661;28;20413;-39
2022/02/27 01:06:43;;;;;;;20.63;8.40;;;4.00;99.90;;;;;;5029907;28;20222;-39
2022/02/27 01:09:09;;;;;;;18.93;8.77;;;4.00;99.90;;;;;;5029393;28;20194;-40
2022/02/27 01:11:35;;;;;;;15.77;8.93;;;4.10;99.90;;;;;;5028901;28;20182;-39
2022/02/27 01:14:01;;;;;;;16.23;7.60;;;4.10;99.90;;;;;;5029274;28;20201;-38
2022/02/27 01:16:27;;;;;;;18.80;8.97;;;4.00;99.90;;;;;;5016225;28;20431;-39
2022/02/27 01:18:53;;;;;;;16.80;8.93;;;4.10;99.90;;;;;;5029284;28;20500;-38
2022/02/27 01:21:20;;;;;;;15.70;7.00;;;3.90;99.90;;;;;;5029290;28;20417;-40
2022/02/27 01:23:46;;;;;;;14.87;8.33;;;4.10;99.90;;;;;;5042623;28;20433;-38
2022/02/27 01:26:13;;;;;;;19.40;9.10;;;3.90;99.90;;;;;;5044396;28;20864;-38
2022/02/27 01:28:40;;;;;;;12.57;6.73;;;3.80;99.90;;;;;;5048869;28;20877;-39
2022/02/27 01:31:09;;;;;;;11.00;6.20;;;3.90;99.90;;;;;;5031872;28;20430;-38
2022/02/27 01:33:35;;;;;;;11.93;6.67;;;4.00;99.90;;;;;;5028865;28;20571;-38
2022/02/27 01:36:01;;;;;;;11.97;6.30;;;4.00;99.90;;;;;;5029296;28;20422;-39
2022/02/27 01:38:27;;;;;;;9.47;5.93;;;3.90;99.90;;;;;;5028933;28;20436;-41
2022/02/27 01:40:52;;;;;;;13.73;6.73;;;3.70;99.90;;;;;;5028390;28;20916;-40
2022/02/27 01:43:18;;;;;;;9.73;5.87;;;3.80;99.90;;;;;;5029023;28;20190;-39
2022/02/27 01:45:44;;;;;;;11.33;5.70;;;3.80;99.90;;;;;;5020759;28;20207;-39
2022/02/27 01:48:10;;;;;;;14.30;5.70;;;3.80;99.90;;;;;;5024825;28;20185;-39
2022/02/27 01:50:35;;;;;;;9.43;6.27;;;3.80;99.90;;;;;;5027762;28;20187;-39
2022/02/27 01:53:02;;;;;;;7.30;5.03;;;3.90;99.90;;;;;;5027954;28;20385;-40
2022/02/27 01:55:27;;;;;;;9.07;5.67;;;3.80;99.90;;;;;;5028274;28;20222;-39
2022/02/27 01:57:53;;;;;;;16.63;7.50;;;3.60;99.90;;;;;;5028507;28;20528;-39
2022/02/27 02:00:19;;;;;;;10.17;7.27;;;3.80;99.90;;;;;;5022649;28;20718;-39
2022/02/27 02:02:46;;;;;;;18.10;8.53;;;3.90;99.90;;;;;;5020761;28;20421;-39
2022/02/27 02:05:13;;;;;;;14.17;8.67;;;3.80;99.90;;;;;;5028080;28;20461;-38
2022/02/27 02:07:40;;;;;;;15.67;10.50;;;3.80;99.90;;;;;;5028555;28;20417;-38
2022/02/27 02:10:06;;;;;;;21.87;9.20;;;3.60;99.90;;;;;;5026026;28;20932;-38
2022/02/27 02:12:32;;;;;;;17.70;8.97;;;3.70;99.90;;;;;;5028399;28;20425;-38
2022/02/27 02:14:59;;;;;;;14.00;8.70;;;3.50;99.90;;;;;;5026445;28;20421;-40
2022/02/27 02:17:25;;;;;;;15.90;7.77;;;3.60;99.90;;;;;;5018956;28;21058;-39
2022/02/27 02:19:55;;;;;;;12.27;7.63;;;3.60;99.90;;;;;;5030470;28;20455;-39
2022/02/27 02:22:21;;;;;;;15.30;7.93;;;3.50;99.90;;;;;;5047957;28;20825;-38
2022/02/27 02:24:46;;;;;;;12.53;7.50;;;3.50;99.90;;;;;;5040289;28;20452;-39
2022/02/27 02:27:12;;;;;;;13.70;7.00;;;3.40;99.90;;;;;;5047980;28;20515;-38
2022/02/27 02:29:38;;;;;;;10.03;6.20;;;3.40;99.90;;;;;;5046945;28;20178;-40
2022/02/27 02:32:04;;;;;;;9.00;6.73;;;3.40;99.90;;;;;;5021509;28;20270;-39
2022/02/27 02:34:30;;;;;;;11.30;6.20;;;3.50;99.90;;;;;;5027660;28;20257;-39
2022/02/27 02:36:56;;;;;;;14.93;6.37;;;3.50;99.90;;;;;;5027740;28;20504;-38
2022/02/27 02:39:24;;;;;;;12.10;8.00;;;3.50;99.90;;;;;;5027416;28;20616;-40
2022/02/27 02:41:50;;;;;;;12.77;6.40;;;3.50;99.90;;;;;;5027092;28;20940;-39
2022/02/27 02:44:17;;;;;;;12.77;7.40;;;3.40;99.90;;;;;;5027775;28;20547;-38
2022/02/27 02:46:44;;;;;;;12.00;7.57;;;3.20;99.90;;;;;;5016219;28;20519;-38
2022/02/27 02:49:12;;;;;;;13.60;8.10;;;3.40;99.90;;;;;;5027799;28;20414;-39
2022/02/27 02:51:39;;;;;;;12.27;7.57;;;3.40;99.90;;;;;;5026253;28;20417;-39
2022/02/27 02:54:05;;;;;;;11.77;6.97;;;3.30;99.90;;;;;;5027038;28;20432;-39
2022/02/27 02:56:31;;;;;;;10.07;7.20;;;3.10;99.90;;;;;;5027427;28;20506;-40
2022/02/27 02:58:57;;;;;;;12.20;7.40;;;3.10;99.90;;;;;;5026878;28;20943;-39
2022/02/27 03:01:22;;;;;;;10.07;6.57;;;3.10;99.90;;;;;;5018072;28;20430;-42
2022/02/27 03:03:50;;;;;;;13.10;6.53;;;3.00;99.90;;;;;;5026769;28;20421;-39
2022/02/27 03:06:17;;;;;;;8.87;5.40;;;2.90;99.90;;;;;;5027022;28;20202;-39
2022/02/27 03:08:45;;;;;;;9.50;5.80;;;3.00;99.90;;;;;;5026673;28;20430;-39
2022/02/27 03:11:11;;;;;;;10.37;5.60;;;2.90;99.90;;;;;;5026412;28;20416;-39
2022/02/27 03:13:37;;;;;;;7.60;4.93;;;2.90;99.90;;;;;;5025468;28;20806;-40
2022/02/27 03:16:04;;;;;;;9.20;4.63;;;2.60;99.90;;;;;;5020419;28;20214;-39
2022/02/27 03:18:30;;;;;;;8.70;4.77;;;2.80;99.90;;;;;;5018324;28;20953;-38
2022/02/27 03:20:59;;;;;;;9.47;4.67;;;2.70;99.90;;;;;;5025051;28;20437;-40
2022/02/27 03:23:25;;;;;;;7.50;4.27;;;2.90;99.90;;;;;;5026765;28;20514;-39
2022/02/27 03:25:52;;;;;;;7.00;3.83;;;3.00;99.90;;;;;;5026832;28;20476;-41
2022/02/27 03:28:17;;;;;;;9.83;3.43;;;3.20;99.90;;;;;;5026930;28;20413;-39
2022/02/27 03:30:43;;;;;;;7.53;4.30;;;3.30;99.90;;;;;;5023677;28;20950;-38
2022/02/27 03:33:09;;;;;;;6.30;3.63;;;3.40;99.90;;;;;;5031878;28;20185;-38
2022/02/27 03:35:35;;;;;;;9.17;3.93;;;3.10;99.90;;;;;;5026224;28;20194;-38
2022/02/27 03:38:02;;;;;;;7.93;4.20;;;3.20;99.90;;;;;;5025275;28;20222;-38
2022/02/27 03:40:28;;;;;;;8.53;3.90;;;3.40;99.90;;;;;;5025985;28;20425;-40
2022/02/27 03:42:53;;;;;;;5.93;4.63;;;3.40;99.90;;;;;;5026699;28;20436;-41
2022/02/27 03:45:19;;;;;;;8.40;7.00;;;3.30;99.90;;;;;;5026593;28;20575;-39
2022/02/27 03:47:45;;;;;;;9.37;5.60;;;3.10;99.90;;;;;;5016369;28;20648;-39
2022/02/27 03:50:14;;;;;;;10.27;4.80;;;3.10;99.90;;;;;;5025891;28;20426;-38
2022/02/27 03:52:40;;;;;;;8.77;5.37;;;3.10;99.90;;;;;;5027405;28;20456;-39
2022/02/27 03:55:09;;;;;;;8.73;5.77;;;3.10;99.90;;;;;;5026006;28;20867;-40
2022/02/27 03:57:35;;;;;;;9.17;5.87;;;3.00;99.90;;;;;;5013568;28;20494;-38
2022/02/27 04:00:01;;;;;;;11.97;5.40;;;3.10;99.90;;;;;;5025568;28;20503;-41
2022/02/27 04:02:27;;;;;;;12.73;5.17;;;2.90;99.90;;;;;;5016233;28;20978;-38
2022/02/27 04:04:52;;;;;;;6.30;4.50;;;2.90;99.90;;;;;;5025923;28;20556;-40
2022/02/27 04:07:19;;;;;;;6.13;4.20;;;2.90;99.90;;;;;;5026285;28;20535;-39
2022/02/27 04:09:45;;;;;;;8.50;4.53;;;2.80;99.90;;;;;;5025821;28;20182;-38
2022/02/27 04:12:10;;;;;;;9.43;4.40;;;3.00;99.90;;;;;;5024902;28;20429;-39
2022/02/27 04:14:36;;;;;;;8.53;4.20;;;2.80;99.90;;;;;;5026874;28;20198;-38
2022/02/27 04:17:02;;;;;;;6.53;4.13;;;3.00;99.90;;;;;;5015673;28;20255;-39
2022/02/27 04:19:27;;;;;;;6.10;3.57;;;2.80;99.90;;;;;;5024238;28;20182;-38
2022/02/27 04:21:53;;;;;;;8.80;3.80;;;2.90;99.90;;;;;;5028488;28;20830;-39
2022/02/27 04:24:19;;;;;;;8.50;3.80;;;3.00;99.90;;;;;;5030077;28;20195;-38
2022/02/27 04:26:45;;;;;;;6.80;3.80;;;3.20;99.90;;;;;;5029849;28;20532;-39
2022/02/27 04:29:10;;;;;;;5.20;3.37;;;3.20;99.90;;;;;;5028904;28;20625;-39
2022/02/27 04:31:37;;;;;;;8.93;4.50;;;3.30;99.90;;;;;;5024562;28;20448;-39
2022/02/27 04:34:03;;;;;;;9.60;4.60;;;3.40;99.90;;;;;;5024232;28;20653;-40
2022/02/27 04:36:29;;;;;;;8.63;4.40;;;3.40;99.90;;;;;;5028432;28;20425;-38
2022/02/27 04:38:54;;;;;;;5.40;3.23;;;3.60;99.90;;;;;;5030280;28;20735;-39
2022/02/27 04:41:21;;;;;;;6.37;3.80;;;3.70;99.90;;;;;;5027771;28;20186;-41
2022/02/27 04:43:48;;;;;;;6.50;3.60;;;3.90;99.90;;;;;;5029739;28;20190;-39
2022/02/27 04:46:14;;;;;;;7.90;3.97;;;3.70;99.90;;;;;;5027106;28;20500;-38
2022/02/27 04:48:40;;;;;;;4.37;3.53;;;3.80;99.90;;;;;;5022957;28;20930;-39
2022/02/27 04:51:06;;;;;;;6.03;4.23;;;3.90;99.90;;;;;;5028259;28;20782;-38
2022/02/27 04:53:33;;;;;;;6.93;3.97;;;3.90;99.90;;;;;;5029090;28;20969;-38
2022/02/27 04:55:58;;;;;;;10.07;4.20;;;4.10;99.90;;;;;;5029646;28;20472;-38
2022/02/27 04:58:24;;;;;;;8.73;4.67;;;3.90;99.90;;;;;;5029230;28;20457;-38
2022/02/27 05:00:50;;;;;;;9.70;4.13;;;3.80;99.90;;;;;;5028706;28;20190;-41
2022/02/27 05:03:15;;;;;;;6.10;3.60;;;3.70;99.90;;;;;;5023105;28;20289;-39
2022/02/27 05:05:41;;;;;;;6.90;3.80;;;3.80;99.90;;;;;;5029431;28;20525;-39
2022/02/27 05:08:07;;;;;;;8.60;3.80;;;3.90;99.90;;;;;;5029192;28;20236;-38
2022/02/27 05:10:32;;;;;;;7.03;4.30;;;4.00;99.90;;;;;;5027464;28;20653;-39
2022/02/27 05:12:58;;;;;;;4.43;3.70;;;3.90;99.90;;;;;;5028992;28;20653;-40
2022/02/27 05:15:24;;;;;;;3.60;3.30;;;4.00;99.90;;;;;;5028896;28;20194;-38
2022/02/27 05:17:50;;;;;;;6.23;3.60;;;3.70;99.90;;;;;;5020020;28;20878;-41
2022/02/27 05:20:16;;;;;;;7.63;4.13;;;3.70;99.90;;;;;;5034415;28;20843;-39
2022/02/27 05:22:44;;;;;;;7.00;3.67;;;3.70;99.90;;;;;;5042949;28;20932;-40
2022/02/27 05:25:11;;;;;;;4.70;3.70;;;3.80;99.90;;;;;;5044500;28;20476;-39
2022/02/27 05:27:37;;;;;;;9.30;4.27;;;4.00;99.90;;;;;;5042636;28;20852;-38
2022/02/27 05:30:05;;;;;;;6.60;4.43;;;3.60;99.90;;;;;;5048074;28;20448;-39
2022/02/27 05:32:30;;;;;;;7.33;4.73;;;3.90;99.90;;;;;;5027374;28;20434;-38
2022/02/27 05:34:56;;;;;;;6.30;4.40;;;3.90;99.90;;;;;;5028785;28;20417;-38
2022/02/27 05:37:22;;;;;;;4.50;3.50;;;3.70;99.90;;;;;;5028756;28;20209;-40
2022/02/27 05:39:47;;;;;;;9.23;4.47;;;3.80;99.90;;;;;;5028292;28;20623;-40
2022/02/27 05:42:13;;;;;;;7.50;4.07;;;3.70;99.90;;;;;;5028586;28;20748;-39
2022/02/27 05:44:39;;;;;;;8.80;3.80;;;3.70;99.90;;;;;;5027954;28;20194;-39
2022/02/27 05:47:05;;;;;;;7.60;3.77;;;3.70;99.90;;;;;;5022417;28;20646;-38
2022/02/27 05:49:30;;;;;;;7.00;4.50;;;3.50;99.90;;;;;;5019273;28;20437;-39
2022/02/27 05:51:56;;;;;;;8.93;5.10;;;3.40;99.90;;;;;;5025764;28;20248;-39
2022/02/27 05:54:22;;;;;;;7.30;4.07;;;3.30;99.90;;;;;;5028374;28;20273;-39
2022/02/27 05:56:48;;;;;;;6.40;3.97;;;3.50;99.90;;;;;;5028166;28;20202;-39
2022/02/27 05:59:13;;;;;;;10.33;5.10;;;3.30;99.90;;;;;;5027976;28;20441;-41
2022/02/27 06:01:39;;;;;;;6.80;4.10;;;3.20;99.90;;;;;;5024752;28;20194;-41
2022/02/27 06:04:05;;;;;;;7.20;3.90;;;3.20;99.90;;;;;;5016908;28;20186;-39
2022/02/27 06:06:30;;;;;;;4.93;3.80;;;3.50;99.90;;;;;;5027883;28;20210;-38
2022/02/27 06:08:56;;;;;;;8.50;4.33;;;3.30;99.90;;;;;;5026938;28;20196;-38
2022/02/27 06:11:21;;;;;;;6.97;4.10;;;3.50;99.90;;;;;;5027189;28;20707;-39
2022/02/27 06:13:47;;;;;;;10.00;4.70;;;3.30;99.90;;;;;;5027898;28;20662;-43
2022/02/27 06:16:13;;;;;;;6.40;4.43;;;3.40;99.90;;;;;;5027829;28;20182;-39
2022/02/27 06:18:39;;;;;;;5.03;3.87;;;3.60;99.90;;;;;;5019602;28;20183;-38
2022/02/27 06:21:05;;;;;;;4.60;4.00;;;3.60;99.90;;;;;;5026819;28;20641;-38
2022/02/27 06:23:30;;;;;;;8.60;4.40;;;3.60;99.90;;;;;;5014605;28;20568;-39
2022/02/27 06:25:56;;;;;;;6.60;4.20;;;3.70;99.90;;;;;;5027855;28;20460;-39
2022/02/27 06:28:22;;;;;;;7.90;4.30;;;3.70;99.90;;;;;;5027437;28;20639;-40
2022/02/27 06:30:47;;;;;;;7.57;4.10;;;3.50;99.90;;;;;;5027523;28;20255;-39
2022/02/27 06:33:13;;;;;;;10.60;3.93;;;3.70;99.90;;;;;;5017925;28;20680;-41
2022/02/27 06:35:39;;;;;;;12.87;4.07;;;3.50;99.90;;;;;;5027407;28;20186;-38
2022/02/27 06:38:04;;;;;;;9.83;5.17;;;3.60;99.90;;;;;;5027243;28;20293;-39
2022/02/27 06:40:30;;;;;;;6.23;3.70;;;3.80;99.90;;;;;;5026810;28;20187;-38
2022/02/27 06:42:56;;;;;;;12.13;3.80;;;3.60;99.90;;;;;;5012895;28;20182;-39
2022/02/27 06:45:21;;;;;;;8.40;4.20;;;3.50;99.90;;;;;;5027353;28;20248;-38
2022/02/27 06:47:47;;;;;;;7.27;4.87;;;3.60;99.90;;;;;;5018692;28;20282;-38
2022/02/27 06:50:13;;;;;;;7.03;4.53;;;3.50;99.90;;;;;;5022674;28;20559;-38
2022/02/27 06:52:40;;;;;;;7.90;4.50;;;3.70;99.90;;;;;;5026038;28;20182;-42
2022/02/27 06:55:06;;;;;;;7.80;4.30;;;3.80;99.90;;;;;;5027307;28;20421;-38
2022/02/27 06:57:32;;;;;;;4.67;4.00;;;3.50;99.90;;;;;;5026473;28;20455;-40
2022/02/27 06:59:58;;;;;;;7.33;4.63;;;3.60;99.90;;;;;;5026667;28;20528;-41
2022/02/27 07:02:24;;;;;;;6.43;4.53;;;3.70;99.90;;;;;;5023629;28;20294;-38
2022/02/27 07:04:49;;;;;;;8.03;4.77;;;3.80;99.90;;;;;;5020537;28;20182;-38
2022/02/27 07:07:15;;;;;;;10.33;4.90;;;3.70;99.90;;;;;;5027501;28;20737;-39
2022/02/27 07:09:41;;;;;;;8.53;5.10;;;3.80;99.90;;;;;;5026443;28;20252;-40
2022/02/27 07:12:07;;;;;;;9.10;4.50;;;3.70;99.90;;;;;;5027014;28;20178;-39
2022/02/27 07:14:33;;;;;;;6.80;4.50;;;3.80;99.90;;;;;;5026869;28;20190;-40
2022/02/27 07:16:59;;;;;;;8.13;4.40;;;3.70;99.90;;;;;;5027586;28;20474;-39
2022/02/27 07:19:25;;;;;;;8.00;4.60;;;3.60;99.90;;;;;;5020068;28;20202;-38
2022/02/27 07:21:50;;;;;;;6.50;4.80;;;3.50;99.90;;;;;;5026717;28;20962;-38
2022/02/27 07:24:16;;;;;;;7.73;4.60;;;3.80;99.90;;;;;;5025635;28;20186;-38
2022/02/27 07:26:42;;;;;;;7.90;3.83;;;3.80;99.90;;;;;;5026649;28;20216;-40
2022/02/27 07:29:08;;;;;;;5.97;4.47;;;3.70;99.90;;;;;;5026893;28;20759;-38
2022/02/27 07:31:34;;;;;;;7.77;5.00;;;3.70;99.90;;;;;;5026221;28;20186;-41
2022/02/27 07:34:02;;;;;;;8.93;4.60;;;3.80;99.90;;;;;;5019485;28;20520;-39
2022/02/27 07:36:28;;;;;;;7.13;4.60;;;3.80;99.90;;;;;;5027040;28;20421;-41
2022/02/27 07:38:54;;;;;;;7.80;4.57;;;3.80;99.90;;;;;;5028987;28;20515;-39
2022/02/27 07:41:20;;;;;;;7.80;4.93;;;4.00;99.90;;;;;;5025498;28;21037;-39
2022/02/27 07:43:46;;;;;;;6.27;4.47;;;4.00;99.90;;;;;;5027096;28;20508;-39
2022/02/27 07:46:12;;;;;;;12.70;5.10;;;4.10;99.90;;;;;;5027097;28;20220;-39
2022/02/27 07:48:38;;;;;;;8.00;5.40;;;4.30;99.90;;;;;;5015492;28;20532;-39
2022/02/27 07:51:03;;;;;;;8.87;4.57;;;4.50;99.90;;;;;;5017438;28;20623;-40
2022/02/27 07:53:29;;;;;;;10.07;4.63;;;4.90;99.90;;;;;;5026239;28;20256;-38
2022/02/27 07:55:54;;;;;;;7.60;5.03;;;5.10;99.90;;;;;;5014626;28;20197;-39
2022/02/27 07:58:20;;;;;;;11.23;5.63;;;5.30;99.90;;;;;;5030425;28;20206;-38
2022/02/27 08:00:46;;;;;;;7.60;4.60;;;5.50;99.90;;;;;;5030108;28;20247;-42
2022/02/27 08:03:12;;;;;;;7.43;4.40;;;5.80;99.90;;;;;;5027249;28;20435;-41
2022/02/27 08:05:40;;;;;;;9.40;5.00;;;5.80;99.90;;;;;;5020305;28;20685;-38
2022/02/27 08:08:06;;;;;;;11.73;5.70;;;6.10;99.90;;;;;;5030260;28;20790;-38
2022/02/27 08:10:32;;;;;;;7.70;4.57;;;6.30;99.90;;;;;;5029468;28;20421;-38
2022/02/27 08:12:57;;;;;;;7.67;5.23;;;6.40;99.90;;;;;;5030264;28;20413;-39
2022/02/27 08:15:24;;;;;;;7.03;5.40;;;6.50;99.90;;;;;;5029216;28;20429;-39
2022/02/27 08:17:53;;;;;;;7.17;5.00;;;6.60;99.90;;;;;;5024443;28;20598;-38
2022/02/27 08:20:19;;;;;;;15.33;6.27;;;7.00;99.90;;;;;;5018439;28;20429;-39
2022/02/27 08:22:45;;;;;;;6.93;4.87;;;7.10;99.90;;;;;;5029701;28;20445;-43
2022/02/27 08:25:15;;;;;;;6.50;4.60;;;7.30;99.90;;;;;;5029658;28;20544;-39
2022/02/27 08:27:42;;;;;;;9.73;5.30;;;7.50;99.90;;;;;;5029978;28;20186;-39
2022/02/27 08:30:08;;;;;;;11.13;4.57;;;7.70;99.90;;;;;;5025844;28;20494;-38
2022/02/27 08:32:34;;;;;;;7.30;4.90;;;8.00;99.90;;;;;;5027072;28;20475;-39
2022/02/27 08:35:00;;;;;;;8.50;5.03;;;8.00;99.90;;;;;;5019532;28;20425;-39
2022/02/27 08:37:26;;;;;;;9.37;5.67;;;8.20;99.30;;;;;;5028530;28;20195;-39
2022/02/27 08:39:52;;;;;;;9.63;4.97;;;8.30;99.40;;;;;;5028491;28;20671;-40
2022/02/27 08:42:18;;;;;;;11.10;5.00;;;8.60;99.00;;;;;;5028492;28;20587;-39
2022/02/27 08:44:44;;;;;;;8.53;4.97;;;8.50;98.90;;;;;;5028383;28;20194;-39
2022/02/27 08:47:10;;;;;;;9.83;5.47;;;8.70;98.50;;;;;;5028045;28;20516;-39
2022/02/27 08:49:35;;;;;;;6.60;4.93;;;8.60;98.20;;;;;;5016713;28;20488;-41
2022/02/27 08:52:02;;;;;;;9.00;5.10;;;8.70;98.50;;;;;;5027535;28;20206;-39
2022/02/27 08:54:28;;;;;;;7.50;4.53;;;8.60;97.70;;;;;;5028210;28;20194;-41
2022/02/27 08:56:53;;;;;;;6.13;4.30;;;9.10;97.10;;;;;;5028857;28;20832;-39
2022/02/27 08:59:19;;;;;;;7.30;4.50;;;8.90;97.10;;;;;;5029697;28;20669;-39
2022/02/27 09:01:45;;;;;;;9.60;4.90;;;9.30;96.80;;;;;;5027216;28;20362;-39
2022/02/27 09:04:11;;;;;;;5.13;4.63;;;9.30;97.10;;;;;;5005865;28;21204;-39
2022/02/27 09:06:37;;;;;;;8.20;4.33;;;9.60;97.00;;;;;;5025953;28;20585;-40
2022/02/27 09:09:03;;;;;;;5.33;4.50;;;9.70;96.60;;;;;;5027638;28;20186;-39
2022/02/27 09:11:29;;;;;;;7.40;4.20;;;9.80;95.50;;;;;;5019909;28;20198;-40
2022/02/27 09:13:54;;;;;;;7.40;4.27;;;9.80;95.80;;;;;;5029121;28;20417;-39
2022/02/27 09:16:20;;;;;;;9.83;4.67;;;9.90;94.90;;;;;;5029771;28;20428;-39
2022/02/27 09:18:46;;;;;;;8.00;4.13;;;9.80;94.40;;;;;;5021808;28;20192;-38
2022/02/27 09:21:12;;;;;;;6.63;3.20;;;9.90;94.30;;;;;;5023314;28;20258;-39
2022/02/27 09:23:38;;;;;;;7.13;5.00;;;10.00;92.90;;;;;;5028731;28;20445;-39
2022/02/27 09:26:04;;;;;;;7.13;3.70;;;9.90;93.60;;;;;;5044172;28;20506;-39
2022/02/27 09:28:31;;;;;;;5.57;4.10;;;10.20;92.80;;;;;;5040253;28;20285;-40
2022/02/27 09:30:58;;;;;;;4.80;3.43;;;10.20;93.20;;;;;;5048645;28;20420;-39
2022/02/27 09:33:23;;;;;;;5.33;3.23;;;10.00;92.20;;;;;;5043020;28;20426;-41
2022/02/27 09:35:53;;;;;;;5.30;3.47;;;10.20;92.60;;;;;;5023209;28;20431;-38
2022/02/27 09:38:19;;;;;;;6.87;3.57;;;10.40;92.60;;;;;;5029409;28;20212;-38
2022/02/27 09:40:49;;;;;;;4.63;2.77;;;10.30;91.50;;;;;;5028230;28;20429;-39
2022/02/27 09:43:18;;;;;;;4.90;3.37;;;10.50;91.20;;;;;;5029158;28;20425;-39
2022/02/27 09:45:45;;;;;;;5.20;3.70;;;10.60;91.00;;;;;;5024211;28;20506;-39
2022/02/27 09:48:11;;;;;;;4.30;3.47;;;10.30;91.50;;;;;;5025693;28;20435;-39
2022/02/27 09:50:37;;;;;;;5.43;3.23;;;10.50;91.00;;;;;;5018594;28;20437;-39
2022/02/27 09:53:03;;;;;;;4.27;3.00;;;10.50;90.20;;;;;;5027586;28;20776;-39
2022/02/27 09:55:29;;;;;;;3.43;3.10;;;10.40;90.10;;;;;;5028540;28;20457;-39
2022/02/27 09:57:54;;;;;;;6.23;3.50;;;10.80;91.90;;;;;;5028852;28;20477;-39
2022/02/27 10:00:20;;;;;;;4.10;3.17;;;10.60;90.10;;;;;;5026774;28;20241;-41
2022/02/27 10:03:02;;;;;;;2.93;2.57;;;10.80;90.50;;;;;;5028756;28;20186;-39
2022/02/27 10:05:28;;;;;;;4.50;2.90;;;11.20;89.40;;;;;;5020165;28;20975;-39
2022/02/27 10:07:58;;;;;;;4.73;2.47;;;11.60;90.20;;;;;;5028801;28;20420;-38
2022/02/27 10:10:24;;;;;;;4.00;2.77;;;11.60;86.80;;;;;;5027042;28;20476;-39
2022/02/27 10:12:50;;;;;;;3.10;2.33;;;11.30;87.60;;;;;;5022971;28;20429;-40
2022/02/27 10:15:16;;;;;;;3.47;2.10;;;11.30;84.50;;;;;;5027847;28;20886;-38
2022/02/27 10:17:42;;;;;;;4.60;2.50;;;11.10;80.70;;;;;;5028513;28;20183;-38
2022/02/27 10:20:22;;;;;;;2.43;2.07;;;10.70;82.40;;;;;;5020946;28;20441;-38
2022/02/27 10:22:50;;;;;;;3.30;1.90;;;10.90;79.70;;;;;;5023830;28;20691;-41
2022/02/27 10:25:28;;;;;;;2.63;2.03;;;10.70;80.00;;;;;;5025941;28;20449;-38
2022/02/27 10:27:57;;;;;;;3.70;2.40;;;10.70;79.90;;;;;;5014213;28;20445;-40
2022/02/27 10:30:27;;;;;;;3.40;2.03;;;10.80;79.40;;;;;;5023341;28;20417;-38
2022/02/27 10:33:07;;;;;;;2.30;2.10;;;10.90;77.60;;;;;;5025911;28;20428;-40
2022/02/27 10:35:36;;;;;;;2.63;2.17;;;10.90;75.90;;;;;;5018474;28;20503;-39
2022/02/27 10:38:02;;;;;;;4.00;2.03;;;10.80;76.70;;;;;;5025202;28;20413;-38
2022/02/27 10:40:37;;;;;;;2.10;1.90;;;11.20;78.20;;;;;;5026400;28;20421;-41
2022/02/27 10:43:10;;;;;;;7.60;2.30;;;11.20;75.10;;;;;;5012531;28;20508;-38
2022/02/27 10:45:37;;;;;;;2.27;1.63;;;11.30;75.50;;;;;;5024279;28;21543;-39
2022/02/27 10:48:15;;;;;;;4.03;1.90;;;11.40;74.70;;;;;;5025284;28;20417;-39
2022/02/27 10:50:45;;;;;;;2.37;1.70;;;11.60;75.60;;;;;;5014454;28;20424;-39
2022/02/27 10:53:13;;;;;;;4.20;2.80;;;11.40;72.30;;;;;;5024332;28;20413;-44
2022/02/27 10:55:39;;;;;;;2.90;2.00;;;11.20;72.60;;;;;;5027139;28;20437;-40
2022/02/27 10:58:05;;;;;;;2.80;1.70;;;11.20;73.50;;;;;;5026558;28;20453;-39
2022/02/27 11:00:36;;;;;;;4.73;2.23;;;11.00;72.60;;;;;;5025124;28;20190;-39
2022/02/27 11:03:07;;;;;;;3.13;2.10;;;10.90;71.50;;;;;;5026624;28;20433;-39
2022/02/27 11:05:39;;;;;;;2.93;1.90;;;10.60;72.40;;;;;;5017950;28;20495;-40
2022/02/27 11:08:08;;;;;;;4.30;2.50;;;10.60;73.90;;;;;;5026475;28;20496;-38
2022/02/27 11:10:36;;;;;;;3.57;1.73;;;10.60;75.90;;;;;;5027636;28;20438;-39
2022/02/27 11:13:05;;;;;;;2.13;1.93;;;10.40;73.90;;;;;;5040202;28;20413;-38
2022/02/27 11:15:31;;;;;;;3.13;1.90;;;10.20;71.80;;;;;;5046269;28;20424;-38
2022/02/27 11:17:57;;;;;;;3.80;2.67;;;10.00;73.20;;;;;;5046306;28;20850;-39
2022/02/27 11:20:24;;;;;;;2.43;2.00;;;9.90;74.30;;;;;;5025459;28;20489;-38
2022/02/27 11:22:52;;;;;;;2.20;1.80;;;9.90;76.00;;;;;;5026715;28;20499;-38
2022/02/27 11:25:19;;;;;;;1.80;1.63;;;9.80;77.60;;;;;;5026434;28;20976;-38
2022/02/27 11:28:01;;;;;;;2.70;1.60;;;9.70;75.80;;;;;;5026910;28;20508;-38
2022/02/27 11:30:36;;;;;;;3.43;2.00;;;9.80;76.70;;;;;;5023739;28;20848;-38
2022/02/27 11:33:06;;;;;;;2.70;1.90;;;9.80;76.60;;;;;;5026711;28;20435;-38
2022/02/27 11:35:49;;;;;;;2.13;1.70;;;9.70;77.20;;;;;;5015418;28;21036;-39
2022/02/27 11:38:30;;;;;;;2.67;1.80;;;9.80;75.20;;;;;;5023609;28;20475;-38
2022/02/27 11:41:14;;;;;;;2.53;1.77;;;9.60;74.00;;;;;;5025439;28;20931;-39
2022/02/27 11:43:42;;;;;;;3.23;1.43;;;10.10;75.60;;;;;;5026498;28;20421;-38
2022/02/27 11:46:10;;;;;;;1.47;1.37;;;9.70;73.70;;;;;;5026215;28;20487;-38
2022/02/27 11:49:18;;;;;;;1.93;1.60;;;9.90;72.50;;;;;;5026527;28;20444;-39
2022/02/27 11:51:47;;;;;;;3.10;1.60;;;9.90;72.90;;;;;;5022823;28;20455;-38
2022/02/27 11:54:25;;;;;;;4.47;2.10;;;10.00;72.50;;;;;;5024914;28;20429;-39
2022/02/27 11:57:00;;;;;;;2.73;1.67;;;10.40;72.40;;;;;;5026229;28;20502;-39
2022/02/27 12:00:04;;;;;;;1.97;1.70;;;10.50;70.90;;;;;;5025112;28;20539;-41
2022/02/27 12:02:44;;;;;;;3.33;2.10;;;10.40;70.10;;;;;;5026359;28;20420;-39
2022/02/27 12:05:18;;;;;;;2.00;1.60;;;10.70;70.60;;;;;;5020348;28;20491;-39
2022/02/27 12:08:08;;;;;;;2.77;2.10;;;10.70;70.30;;;;;;5018984;28;20427;-38
2022/02/27 12:10:52;;;;;;;2.13;1.30;;;10.80;72.10;;;;;;5024147;28;20939;-38
2022/02/27 12:13:25;;;;;;;4.00;1.40;;;10.50;69.60;;;;;;5026030;28;20440;-41
2022/02/27 12:16:09;;;;;;;1.97;1.43;;;10.70;69.10;;;;;;5026289;28;20508;-39
2022/02/27 12:18:52;;;;;;;1.73;1.60;;;10.80;68.20;;;;;;5025748;28;20524;-39
2022/02/27 12:21:40;;;;;;;3.03;1.70;;;10.90;66.60;;;;;;5010409;28;20960;-38
2022/02/27 12:24:14;;;;;;;5.73;1.67;;;10.80;67.50;;;;;;5020837;28;20906;-38
2022/02/27 12:26:47;;;;;;;1.73;1.37;;;10.80;66.00;;;;;;5021784;28;21008;-38
2022/02/27 12:29:33;;;;;;;2.67;1.67;;;10.80;66.00;;;;;;5023504;28;21030;-39
2022/02/27 12:32:06;;;;;;;2.20;1.77;;;10.80;65.70;;;;;;5043914;28;20416;-38
2022/02/27 12:34:33;;;;;;;2.67;2.17;;;11.00;66.30;;;;;;5043372;28;20424;-38
2022/02/27 12:37:00;;;;;;;1.83;1.73;;;11.00;66.00;;;;;;5023630;28;20463;-39
2022/02/27 12:39:31;;;;;;;2.30;1.63;;;11.00;65.60;;;;;;5025512;28;20487;-41
2022/02/27 12:41:57;;;;;;;1.77;1.63;;;10.90;64.00;;;;;;5027108;28;20452;-38
2022/02/27 12:44:23;;;;;;;1.73;1.50;;;10.80;64.70;;;;;;5029567;28;20439;-39
2022/02/27 12:46:48;;;;;;;2.00;1.50;;;11.00;65.50;;;;;;5029602;28;20452;-39
2022/02/27 12:52:00;;;;;;;2.20;1.60;;;10.90;64.20;;;;;;5015641;28;20277;-39
2022/02/27 12:54:34;;;;;;;2.10;1.90;;;10.70;64.80;;;;;;5007908;28;20426;-38
2022/02/27 12:57:08;;;;;;;2.47;1.80;;;10.70;65.10;;;;;;5024357;28;20464;-38